Portada
METAR-TAF:

METAR-TAF

Aeroports :

Wuhan, Xina

latitud: 30-37N, longitud: 114-08E, altitud: 23 m

Observació

L'informe es va fer fa 42 minuts, a les 19:00 UTC
Vent 6 kt del Sud-Oest
Temperatura 25°C
Humitat 89%
Pressió 1006 hPa
Visibilitat: 8000 m

METAR: ZHHH 011900Z 22003MPS 8000 NSC 25/23 Q1006 NOSIG

Hora: 03:42 (19:42 UTC)

Pronòstic

L'informe es va fer fa 4 hores i 35 minuts, a les 15:07 UTC
Pronòstic vàlid del 01 a les 18 UTC al 02 a les 18 UTC
Vent 6 kt del Sud-Est
Visibilitat: 5000 m
Núvols disperses a una alçada de 2000 ft
boirina
Temporalment
l' 02 a les 08 UTC al 02 a les 12 UTC
Visibilitat: 3000 m
Núvols disperses a una alçada de 1200 ft
Escasses núvols a una alçada de 3000 ft, Cumulonimbus.
Cel ennuvolat a una alçada de 4000 ft
xàfecs de pluja, boirina

TAF: ZHHH 011507Z 0118/0218 13003MPS 5000 BR SCT020 TX31/0207Z TN20/0122Z TEMPO 0208/0212 3000 SHRA BR SCT012 FEW030CB BKN040

Observacions i pronòstics meteorològics de més de 4000 aeroports (METAR i TAF).

Les estacions disponibles són els punts grocs i vermells al mapa.

Posi el ratolí al punt desitjat per veure el nom de l'estació.

Feu clic per veure les observacions i els pronòstics meteorològics.

Per canviar el mapa: feu clic els botons verds amb una creu de color negre per apropar; al botó verd amb un guió per allunyar la imatge; o en les fletxes verdes per a mapes adjacents.


METAR-TAF: